Trombudo Central, Brazil
Current Conditions -  °F | °C
As of 9:00 PM on Saturday 20 Dec 2014 (Local Time) from SBNF Reporting Station
Few Clouds Few Clouds  
Wind Chill: 81°   Ceiling: Unl
Heat Index: 87°   Visibility: 6mi
Dew Point: 77°   Wind: 9mph
Humidity: 89%   Direction: 40°NE
Pressure: 29.65"   Gusts: NA
Location:  27.3°S, 49.77°W
Report Text: SBNF 202300Z 04008KT 9999 FEW008 27/25 Q1004
Loading
Personal Weather Stations






























Interactive Weather Map New forecast layout! Learn more

10-Day Weather Forecast

Advertisements
Track Severe Weather on mobile